Time;durP1;ratioP1;P1;durP2;ratioP2;P2;SDS_P1;SDS_P2;PMS_P1;PMS_P2;Temp;Humidity;BMP_temperature;BMP_pressure;BME280_temperature;BME280_humidity;BME280_pressure;Samples;Min_cycle;Max_cycle;Signal;HPM_P1;HPM_P2
2023/03/31 00:02:12;;;;;;;9.35;2.22;;;11.00;99.90;;;;;;4974031;28;20031;-58
2023/03/31 00:04:44;;;;;;;6.53;1.73;;;11.00;99.90;;;;;;4972399;28;20556;-58
2023/03/31 00:07:12;;;;;;;7.28;1.88;;;11.00;99.90;;;;;;4977335;28;20034;-57
2023/03/31 00:09:39;;;;;;;8.43;1.70;;;11.10;99.90;;;;;;4975047;28;20554;-58
2023/03/31 00:12:05;;;;;;;7.22;1.83;;;11.00;99.90;;;;;;4973919;28;20053;-58
2023/03/31 00:14:31;;;;;;;5.60;1.45;;;11.00;99.90;;;;;;4974209;28;20063;-58
2023/03/31 00:16:57;;;;;;;5.75;1.70;;;11.00;99.90;;;;;;4975955;28;20042;-58
2023/03/31 00:19:23;;;;;;;6.50;1.63;;;11.10;99.90;;;;;;4974858;28;20120;-58
2023/03/31 00:21:50;;;;;;;4.68;1.50;;;11.10;99.90;;;;;;4976115;28;20402;-58
2023/03/31 00:24:16;;;;;;;10.23;2.13;;;11.10;99.90;;;;;;4981989;28;20030;-58
2023/03/31 00:26:43;;;;;;;7.95;1.95;;;11.20;99.90;;;;;;4980445;28;20041;-58
2023/03/31 00:29:11;;;;;;;6.45;1.73;;;11.10;99.90;;;;;;4976038;28;20038;-58
2023/03/31 00:31:37;;;;;;;9.65;2.10;;;11.10;99.90;;;;;;4980253;28;20050;-58
2023/03/31 00:34:04;;;;;;;5.80;1.77;;;11.10;99.90;;;;;;4975314;28;20026;-58
2023/03/31 00:36:30;;;;;;;7.93;1.65;;;11.10;99.90;;;;;;4978447;28;20027;-57
2023/03/31 00:38:59;;;;;;;7.32;1.70;;;11.10;99.90;;;;;;4977521;28;20030;-57
2023/03/31 00:41:25;;;;;;;11.55;2.38;;;11.10;99.90;;;;;;4975849;28;20273;-57
2023/03/31 00:44:17;;;;;;;7.55;1.75;;;11.00;99.90;;;;;;4976282;28;20517;-58
2023/03/31 00:46:45;;;;;;;10.55;1.85;;;11.00;99.90;;;;;;4977478;28;20246;-58
2023/03/31 00:49:24;;;;;;;6.43;1.80;;;11.00;99.90;;;;;;4971758;28;20041;-58
2023/03/31 00:51:52;;;;;;;11.32;1.70;;;11.20;99.90;;;;;;4979857;28;20035;-58
2023/03/31 00:54:22;;;;;;;8.20;2.00;;;11.30;99.90;;;;;;4980717;28;20057;-57
2023/03/31 00:56:51;;;;;;;10.82;1.90;;;11.20;99.90;;;;;;4977660;28;20121;-57
2023/03/31 00:59:18;;;;;;;4.25;1.45;;;11.10;99.90;;;;;;4976548;28;20068;-58
2023/03/31 01:01:46;;;;;;;7.20;1.60;;;11.00;99.90;;;;;;4975703;28;20038;-57
2023/03/31 01:04:15;;;;;;;7.20;1.70;;;11.00;99.90;;;;;;4975623;28;20046;-57
2023/03/31 01:06:51;;;;;;;8.57;2.10;;;11.10;99.90;;;;;;4978527;28;20030;-57
2023/03/31 01:09:16;;;;;;;10.02;2.30;;;11.20;99.90;;;;;;4976078;28;20540;-58
2023/03/31 01:11:45;;;;;;;8.30;2.05;;;11.00;99.90;;;;;;4977772;28;20089;-58
2023/03/31 01:14:11;;;;;;;9.20;2.13;;;10.90;99.90;;;;;;4980093;28;20601;-58
2023/03/31 01:16:39;;;;;;;11.88;2.03;;;11.10;99.90;;;;;;4980085;28;20049;-58
2023/03/31 01:19:26;;;;;;;14.38;2.30;;;11.40;99.90;;;;;;4975244;28;20041;-58
2023/03/31 01:22:36;;;;;;;10.27;2.08;;;11.10;99.90;;;;;;4978058;28;20493;-58
2023/03/31 01:25:28;;;;;;;9.23;1.95;;;11.10;99.90;;;;;;4966141;28;20041;-58
2023/03/31 01:28:09;;;;;;;8.82;1.98;;;11.10;99.90;;;;;;4946527;28;20498;-59
2023/03/31 01:30:41;;;;;;;6.68;1.63;;;10.90;99.90;;;;;;4973703;28;20152;-58
2023/03/31 01:33:15;;;;;;;6.35;1.63;;;11.00;99.90;;;;;;4976418;28;20130;-58
2023/03/31 01:36:22;;;;;;;12.82;1.92;;;11.00;99.90;;;;;;4978765;28;20098;-58
2023/03/31 01:39:16;;;;;;;7.07;1.83;;;11.00;99.90;;;;;;4915642;29;20593;-58
2023/03/31 01:41:42;;;;;;;6.78;1.92;;;11.00;99.90;;;;;;4922310;29;20036;-58
2023/03/31 01:44:39;;;;;;;8.10;2.20;;;11.10;99.90;;;;;;4957112;28;20636;-58
2023/03/31 01:47:39;;;;;;;5.28;1.95;;;11.20;99.90;;;;;;4970358;28;20057;-58
2023/03/31 01:50:11;;;;;;;6.50;2.05;;;11.20;99.90;;;;;;4976937;28;20519;-57
2023/03/31 01:53:00;;;;;;;6.28;1.80;;;11.10;99.90;;;;;;4973043;28;20674;-58
2023/03/31 01:55:42;;;;;;;11.18;1.90;;;11.00;99.90;;;;;;4971796;28;20474;-58
2023/03/31 01:58:24;;;;;;;8.57;1.80;;;11.10;99.90;;;;;;4971525;28;20043;-58
2023/03/31 02:01:22;;;;;;;7.38;1.83;;;11.10;99.90;;;;;;4975032;28;20053;-58
2023/03/31 02:03:56;;;;;;;7.72;1.80;;;11.00;99.90;;;;;;4968862;28;20266;-58
2023/03/31 02:06:27;;;;;;;8.20;1.70;;;11.10;99.90;;;;;;4974740;28;20034;-58
2023/03/31 02:09:03;;;;;;;9.80;2.30;;;11.00;99.90;;;;;;4976648;28;20398;-58
2023/03/31 02:11:32;;;;;;;9.38;1.60;;;11.00;99.90;;;;;;4979082;28;20470;-58
2023/03/31 02:14:00;;;;;;;8.23;2.15;;;11.00;99.90;;;;;;4976527;28;20046;-58
2023/03/31 02:16:31;;;;;;;8.52;1.80;;;11.00;99.90;;;;;;4979389;28;20068;-58
2023/03/31 02:19:04;;;;;;;9.55;1.83;;;10.90;99.90;;;;;;4977756;28;20132;-58
2023/03/31 02:21:33;;;;;;;11.02;1.90;;;10.90;99.90;;;;;;4979815;28;20054;-58
2023/03/31 02:24:03;;;;;;;11.50;2.10;;;10.80;99.90;;;;;;4975901;28;20466;-58
2023/03/31 02:26:35;;;;;;;12.43;2.38;;;10.80;99.90;;;;;;4973303;28;20066;-58
2023/03/31 02:29:00;;;;;;;14.90;2.65;;;10.80;99.90;;;;;;4979950;28;20046;-59
2023/03/31 02:31:45;;;;;;;13.32;2.13;;;10.80;99.90;;;;;;4975081;28;20745;-58
2023/03/31 02:34:11;;;;;;;12.30;2.38;;;10.90;99.90;;;;;;4977253;28;20122;-59
2023/03/31 02:36:37;;;;;;;12.65;2.28;;;10.90;99.90;;;;;;4979390;28;20093;-58
2023/03/31 02:39:08;;;;;;;14.40;2.92;;;10.90;99.90;;;;;;4978453;28;20334;-57
2023/03/31 02:41:34;;;;;;;16.05;2.47;;;10.80;99.90;;;;;;4977229;28;20549;-58
2023/03/31 02:44:00;;;;;;;16.73;2.65;;;10.90;99.90;;;;;;4976100;28;20038;-58
2023/03/31 02:46:27;;;;;;;18.92;3.45;;;10.90;99.90;;;;;;4973130;28;20046;-58
2023/03/31 02:48:55;;;;;;;14.40;2.88;;;10.90;99.90;;;;;;4975740;28;20764;-58
2023/03/31 02:51:33;;;;;;;16.05;2.85;;;11.00;99.90;;;;;;4974615;28;20035;-58
2023/03/31 02:54:17;;;;;;;11.88;2.88;;;11.00;99.90;;;;;;4979062;28;20233;-58
2023/03/31 02:57:13;;;;;;;14.95;2.80;;;11.00;99.90;;;;;;4977109;28;20418;-58
2023/03/31 03:00:18;;;;;;;16.20;3.00;;;11.10;99.90;;;;;;4975218;28;20792;-58
2023/03/31 03:03:23;;;;;;;14.88;2.70;;;11.10;99.90;;;;;;4975991;28;20514;-58
2023/03/31 03:06:04;;;;;;;16.75;2.65;;;11.00;99.90;;;;;;4968509;28;20335;-58
2023/03/31 03:08:41;;;;;;;10.60;2.70;;;11.00;99.90;;;;;;4976004;28;20044;-58
2023/03/31 03:11:26;;;;;;;18.75;3.10;;;11.00;99.90;;;;;;4978361;28;20042;-58
2023/03/31 03:14:05;;;;;;;13.77;2.80;;;11.10;99.90;;;;;;4974498;28;20046;-58
2023/03/31 03:17:02;;;;;;;15.73;3.38;;;11.10;99.90;;;;;;4977648;28;20558;-58
2023/03/31 03:19:28;;;;;;;13.35;2.47;;;11.00;99.90;;;;;;4973025;28;20045;-59
2023/03/31 03:21:54;;;;;;;15.60;3.00;;;11.00;99.90;;;;;;4975699;28;20031;-58
2023/03/31 03:24:21;;;;;;;15.15;3.45;;;11.00;99.90;;;;;;4978649;28;20034;-59
2023/03/31 03:26:47;;;;;;;17.88;3.00;;;10.90;99.90;;;;;;4977871;28;20443;-58
2023/03/31 03:29:13;;;;;;;12.05;2.90;;;10.90;99.90;;;;;;4975736;28;20041;-58
2023/03/31 03:31:39;;;;;;;14.30;3.13;;;10.90;99.90;;;;;;4974909;28;20034;-58
2023/03/31 03:34:05;;;;;;;17.23;3.03;;;10.90;99.90;;;;;;4975902;28;20040;-58
2023/03/31 03:36:31;;;;;;;10.25;2.92;;;10.90;99.90;;;;;;4974223;28;20118;-58
2023/03/31 03:38:57;;;;;;;14.75;2.70;;;10.90;99.90;;;;;;4975753;28;20117;-58
2023/03/31 03:41:23;;;;;;;17.27;2.92;;;10.90;99.90;;;;;;4978211;28;20113;-58
2023/03/31 03:43:48;;;;;;;12.68;2.42;;;10.90;99.90;;;;;;4978975;28;20038;-58
2023/03/31 03:46:14;;;;;;;11.63;2.67;;;11.00;99.90;;;;;;4977954;28;20070;-58
2023/03/31 03:48:40;;;;;;;12.65;2.80;;;11.00;99.90;;;;;;4971546;28;20316;-58
2023/03/31 03:51:06;;;;;;;14.00;2.45;;;11.00;99.90;;;;;;4973547;28;20864;-58
2023/03/31 03:53:31;;;;;;;15.98;2.85;;;10.90;99.90;;;;;;4978176;28;20034;-58
2023/03/31 03:55:58;;;;;;;14.75;2.97;;;10.90;99.90;;;;;;4976856;28;20046;-58
2023/03/31 03:58:23;;;;;;;12.93;2.60;;;10.90;99.90;;;;;;4974405;28;20453;-58
2023/03/31 04:00:49;;;;;;;14.07;2.97;;;11.00;99.90;;;;;;4976771;28;20121;-58
2023/03/31 04:03:15;;;;;;;13.52;2.63;;;11.10;99.90;;;;;;4976544;28;20113;-59
2023/03/31 04:05:41;;;;;;;15.43;3.13;;;11.00;99.90;;;;;;4973866;28;20042;-58
2023/03/31 04:08:07;;;;;;;12.15;2.97;;;11.00;99.90;;;;;;4973524;28;20148;-58
2023/03/31 04:10:33;;;;;;;11.38;2.45;;;10.80;99.90;;;;;;4976685;28;20413;-58
2023/03/31 04:12:59;;;;;;;10.20;2.75;;;10.80;99.90;;;;;;4974837;28;20034;-58
2023/03/31 04:15:24;;;;;;;16.75;2.92;;;10.80;99.90;;;;;;4966671;28;20267;-58
2023/03/31 04:17:53;;;;;;;11.50;2.50;;;10.80;99.90;;;;;;4974555;28;20038;-58
2023/03/31 04:20:19;;;;;;;12.57;2.45;;;10.80;99.90;;;;;;4975884;28;20033;-58
2023/03/31 04:22:49;;;;;;;16.30;2.40;;;10.90;99.90;;;;;;4976813;28;20046;-58
2023/03/31 04:25:16;;;;;;;11.23;2.28;;;11.00;99.90;;;;;;4974463;28;20522;-58
2023/03/31 04:27:49;;;;;;;12.27;2.50;;;11.10;99.90;;;;;;4972720;28;20090;-59
2023/03/31 04:30:24;;;;;;;;;;;11.10;99.90;;;;;;4974232;28;20494;-58
2023/03/31 04:32:51;;;;;;;12.82;2.40;;;11.10;99.90;;;;;;4972711;28;20365;-58
2023/03/31 04:35:19;;;;;;;12.25;2.58;;;11.00;99.90;;;;;;4973599;28;20398;-58
2023/03/31 04:37:46;;;;;;;12.98;2.50;;;11.00;99.90;;;;;;4973194;28;20372;-58
2023/03/31 04:40:12;;;;;;;11.23;2.08;;;11.00;99.90;;;;;;4972561;28;20047;-58
2023/03/31 04:42:37;;;;;;;11.48;2.33;;;10.90;99.90;;;;;;4976554;28;20042;-58
2023/03/31 04:45:03;;;;;;;10.20;2.13;;;10.90;99.90;;;;;;4975499;28;20739;-58
2023/03/31 04:47:29;;;;;;;17.30;2.97;;;11.00;99.90;;;;;;4974349;28;20254;-58
2023/03/31 04:49:54;;;;;;;9.88;2.00;;;11.10;99.90;;;;;;4978020;28;20483;-58
2023/03/31 04:52:20;;;;;;;11.15;2.42;;;11.00;99.90;;;;;;4974483;28;20039;-58
2023/03/31 04:54:46;;;;;;;10.27;2.47;;;11.00;99.90;;;;;;4975254;28;20093;-58
2023/03/31 04:57:11;;;;;;;10.77;2.10;;;11.00;99.90;;;;;;4976164;28;20510;-58
2023/03/31 04:59:37;;;;;;;8.45;2.10;;;11.00;99.90;;;;;;4977845;28;20128;-58
2023/03/31 05:02:03;;;;;;;11.48;2.35;;;11.00;99.90;;;;;;4976761;28;20124;-57
2023/03/31 05:04:28;;;;;;;8.32;2.30;;;11.00;99.90;;;;;;4980604;28;20709;-62
2023/03/31 05:06:54;;;;;;;9.32;2.45;;;11.00;99.90;;;;;;4974273;28;20033;-58
2023/03/31 05:09:19;;;;;;;7.03;2.17;;;11.00;99.90;;;;;;4973906;28;20049;-58
2023/03/31 05:11:45;;;;;;;14.57;2.38;;;10.90;99.90;;;;;;4979372;28;20121;-58
2023/03/31 05:14:11;;;;;;;8.73;2.10;;;10.90;99.90;;;;;;4983048;28;20045;-58
2023/03/31 05:16:36;;;;;;;9.70;2.58;;;10.80;99.90;;;;;;4980145;28;20034;-58
2023/03/31 05:19:02;;;;;;;8.57;2.05;;;10.80;99.90;;;;;;4981001;28;20034;-57
2023/03/31 05:21:29;;;;;;;10.95;2.33;;;10.80;99.90;;;;;;4984988;28;20037;-57
2023/03/31 05:23:55;;;;;;;10.40;2.00;;;10.90;99.90;;;;;;4976930;28;20045;-58
2023/03/31 05:26:23;;;;;;;8.65;2.25;;;10.90;99.90;;;;;;4977306;28;20050;-58
2023/03/31 05:28:50;;;;;;;7.00;2.00;;;11.00;99.90;;;;;;4980873;28;20084;-58
2023/03/31 05:31:15;;;;;;;12.38;2.38;;;11.00;99.90;;;;;;4979149;28;20050;-58
2023/03/31 05:33:41;;;;;;;11.65;2.40;;;11.10;99.90;;;;;;4977383;28;20030;-58
2023/03/31 05:36:15;;;;;;;5.82;1.40;;;11.00;99.90;;;;;;4974486;28;20039;-58
2023/03/31 05:38:41;;;;;;;7.50;1.80;;;11.00;99.90;;;;;;4978129;28;20497;-58
2023/03/31 05:41:08;;;;;;;10.02;2.08;;;11.00;99.90;;;;;;4976302;28;20120;-57
2023/03/31 05:43:34;;;;;;;8.07;2.22;;;11.00;99.90;;;;;;4970996;28;20645;-57
2023/03/31 05:46:00;;;;;;;7.05;1.63;;;11.00;99.90;;;;;;4976619;28;20520;-58
2023/03/31 05:48:26;;;;;;;5.85;2.10;;;11.00;99.90;;;;;;4971085;28;20558;-58
2023/03/31 05:50:56;;;;;;;9.18;2.75;;;11.00;99.90;;;;;;4978946;28;20026;-58
2023/03/31 05:53:22;;;;;;;11.50;2.20;;;11.00;99.90;;;;;;4975942;28;20096;-58
2023/03/31 05:55:47;;;;;;;9.57;1.85;;;11.10;99.90;;;;;;4974576;28;20478;-57
2023/03/31 05:58:13;;;;;;;6.43;1.90;;;10.90;99.90;;;;;;4976764;28;20097;-58
2023/03/31 06:00:39;;;;;;;11.07;2.03;;;10.90;99.90;;;;;;4974572;28;20038;-58
2023/03/31 06:03:06;;;;;;;6.75;1.98;;;10.90;99.90;;;;;;4976716;28;20042;-58
2023/03/31 06:05:33;;;;;;;7.38;2.13;;;10.80;99.90;;;;;;4972685;28;20046;-58
2023/03/31 06:07:59;;;;;;;9.27;2.70;;;10.80;99.90;;;;;;4976641;28;20069;-58
2023/03/31 06:10:25;;;;;;;5.80;1.70;;;10.70;99.90;;;;;;4978627;28;20046;-58
2023/03/31 06:12:50;;;;;;;6.47;2.22;;;10.60;99.90;;;;;;4972805;28;20065;-58
2023/03/31 06:15:16;;;;;;;8.32;2.20;;;10.80;99.90;;;;;;4974538;28;20060;-58
2023/03/31 06:17:42;;;;;;;6.90;1.77;;;10.80;99.90;;;;;;4978533;28;20042;-57
2023/03/31 06:20:08;;;;;;;5.97;1.65;;;10.70;99.90;;;;;;4974962;28;20038;-58
2023/03/31 06:22:33;;;;;;;5.55;1.42;;;10.70;99.90;;;;;;4978311;28;20042;-58
2023/03/31 06:24:59;;;;;;;7.53;1.60;;;10.70;99.90;;;;;;4976032;28;20509;-58
2023/03/31 06:27:24;;;;;;;5.85;1.40;;;10.70;99.90;;;;;;4977371;28;20042;-58
2023/03/31 06:29:50;;;;;;;6.80;1.55;;;10.70;99.90;;;;;;4976920;28;20371;-58
2023/03/31 06:32:15;;;;;;;4.68;1.38;;;10.60;99.90;;;;;;4975915;28;20117;-58
2023/03/31 06:34:41;;;;;;;7.72;1.80;;;10.70;99.90;;;;;;4973820;28;20128;-58
2023/03/31 06:37:07;;;;;;;6.82;1.52;;;10.70;99.90;;;;;;4973662;28;20144;-56
2023/03/31 06:39:32;;;;;;;5.68;1.35;;;10.70;99.90;;;;;;4978448;28;20347;-58
2023/03/31 06:41:58;;;;;;;7.43;1.80;;;10.70;99.90;;;;;;4977738;28;20100;-58
2023/03/31 06:44:23;;;;;;;6.53;1.63;;;10.70;99.90;;;;;;4975310;28;20054;-58
2023/03/31 06:46:49;;;;;;;9.20;1.70;;;10.70;99.90;;;;;;4972523;28;20050;-58
2023/03/31 06:49:15;;;;;;;7.10;1.60;;;10.70;99.90;;;;;;4976646;28;20670;-58
2023/03/31 06:51:40;;;;;;;6.18;2.08;;;10.70;99.90;;;;;;4975437;28;20030;-58
2023/03/31 06:54:06;;;;;;;5.75;1.83;;;10.80;99.90;;;;;;4975392;28;20039;-58
2023/03/31 06:56:32;;;;;;;5.40;1.55;;;10.70;99.90;;;;;;4976452;28;20053;-58
2023/03/31 06:58:57;;;;;;;9.10;1.50;;;10.70;99.90;;;;;;4978418;28;20144;-58
2023/03/31 07:01:23;;;;;;;5.32;1.58;;;10.70;99.90;;;;;;4976028;28;20038;-57
2023/03/31 07:03:49;;;;;;;4.72;1.52;;;10.70;99.90;;;;;;4976142;28;20455;-57
2023/03/31 07:06:15;;;;;;;4.35;1.35;;;10.70;99.90;;;;;;4973043;28;20073;-58
2023/03/31 07:08:40;;;;;;;8.55;1.48;;;10.70;99.90;;;;;;4976445;28;20506;-57
2023/03/31 07:11:06;;;;;;;5.82;1.80;;;10.70;99.90;;;;;;4973183;28;20050;-57
2023/03/31 07:13:32;;;;;;;7.63;1.55;;;10.80;99.90;;;;;;4974120;28;20030;-58
2023/03/31 07:15:57;;;;;;;6.45;1.55;;;10.80;99.90;;;;;;4978361;28;20038;-58
2023/03/31 07:18:24;;;;;;;5.70;1.45;;;10.70;99.90;;;;;;4978124;28;20096;-58
2023/03/31 07:20:50;;;;;;;5.72;1.60;;;10.80;99.90;;;;;;4979140;28;20502;-58
2023/03/31 07:23:17;;;;;;;7.05;1.60;;;10.70;99.90;;;;;;4979727;28;20040;-58
2023/03/31 07:25:43;;;;;;;5.18;1.42;;;10.60;99.90;;;;;;4973948;28;20753;-57
2023/03/31 07:28:08;;;;;;;7.95;2.33;;;10.70;99.90;;;;;;4975311;28;20058;-57
2023/03/31 07:30:34;;;;;;;6.32;1.55;;;10.80;99.90;;;;;;4972225;28;20414;-57
2023/03/31 07:33:00;;;;;;;5.68;1.63;;;10.80;99.90;;;;;;4976638;28;20038;-57
2023/03/31 07:35:26;;;;;;;8.68;2.20;;;10.80;99.90;;;;;;4967678;28;20035;-57
2023/03/31 07:37:52;;;;;;;4.93;1.45;;;10.80;99.90;;;;;;4973401;28;20058;-57
2023/03/31 07:40:24;;;;;;;8.15;2.05;;;10.80;99.90;;;;;;4976077;28;20522;-57
2023/03/31 07:42:51;;;;;;;5.18;1.60;;;10.90;99.90;;;;;;4974918;28;20163;-57
2023/03/31 07:45:18;;;;;;;6.43;1.80;;;11.00;99.90;;;;;;4970191;28;20078;-57
2023/03/31 07:47:45;;;;;;;6.80;1.80;;;11.10;99.90;;;;;;4972084;28;20142;-57
2023/03/31 07:50:12;;;;;;;5.40;2.05;;;11.10;99.90;;;;;;4977701;28;20043;-57
2023/03/31 07:52:38;;;;;;;5.90;2.10;;;11.80;99.90;;;;;;4972203;28;20352;-57
2023/03/31 07:55:05;;;;;;;8.32;1.90;;;11.40;99.90;;;;;;4969775;28;20137;-57
2023/03/31 07:57:30;;;;;;;4.80;1.67;;;11.20;99.90;;;;;;4972422;28;20039;-58
2023/03/31 07:59:56;;;;;;;7.38;1.90;;;11.20;99.90;;;;;;4973890;28;20056;-57
2023/03/31 08:02:22;;;;;;;8.07;1.73;;;11.00;99.90;;;;;;4977692;28;20478;-57
2023/03/31 08:04:47;;;;;;;7.25;1.50;;;11.00;99.90;;;;;;4976930;28;20383;-57
2023/03/31 08:07:15;;;;;;;4.63;1.65;;;11.00;99.90;;;;;;4973627;28;20550;-57
2023/03/31 08:09:43;;;;;;;6.35;1.67;;;11.10;99.90;;;;;;4976637;28;20026;-57
2023/03/31 08:12:09;;;;;;;4.97;1.67;;;11.10;99.90;;;;;;4975295;28;20042;-57
2023/03/31 08:14:34;;;;;;;9.45;1.67;;;11.20;99.90;;;;;;4977475;28;20410;-57
2023/03/31 08:17:00;;;;;;;64.03;38.33;;;11.20;99.90;;;;;;4971156;28;20038;-56
2023/03/31 08:19:26;;;;;;;17.30;10.10;;;11.40;99.90;;;;;;4969658;28;20098;-57
2023/03/31 08:21:52;;;;;;;15.23;2.75;;;11.50;99.90;;;;;;4974179;28;20026;-57
2023/03/31 08:24:19;;;;;;;9.27;2.17;;;11.70;99.90;;;;;;4976613;28;20560;-57
2023/03/31 08:26:44;;;;;;;10.05;2.50;;;11.70;99.90;;;;;;4976374;28;20108;-57
2023/03/31 08:29:10;;;;;;;12.40;2.70;;;11.80;99.90;;;;;;4977961;28;20389;-57
2023/03/31 08:31:36;;;;;;;11.00;2.30;;;11.90;99.90;;;;;;4974300;28;20057;-57
2023/03/31 08:34:03;;;;;;;12.60;2.85;;;12.10;99.90;;;;;;4975131;28;20038;-56
2023/03/31 08:36:29;;;;;;;14.32;2.95;;;12.00;99.90;;;;;;4969664;28;20144;-57
2023/03/31 08:38:55;;;;;;;13.25;2.83;;;12.10;99.90;;;;;;4976196;28;20038;-56
2023/03/31 08:41:32;;;;;;;19.50;2.90;;;12.10;99.90;;;;;;4971557;28;20065;-57
2023/03/31 08:44:03;;;;;;;10.05;2.63;;;12.20;99.90;;;;;;4972740;28;20244;-57
2023/03/31 08:46:32;;;;;;;13.45;2.75;;;12.20;99.90;;;;;;4976229;28;20045;-57
2023/03/31 08:48:59;;;;;;;16.20;2.92;;;12.20;99.90;;;;;;4978652;28;20126;-57
2023/03/31 08:51:41;;;;;;;15.15;3.17;;;12.20;99.90;;;;;;4975910;28;20875;-57
2023/03/31 08:54:31;;;;;;;12.52;2.42;;;12.20;99.90;;;;;;4979613;28;20074;-57
2023/03/31 08:56:57;;;;;;;17.27;2.70;;;12.30;99.90;;;;;;4977109;28;20052;-57
2023/03/31 08:59:34;;;;;;;11.82;2.50;;;12.20;99.90;;;;;;4978329;28;20031;-57
2023/03/31 09:02:24;;;;;;;13.45;3.33;;;12.30;99.90;;;;;;4976956;28;20668;-57
2023/03/31 09:05:14;;;;;;;15.00;2.85;;;12.20;99.90;;;;;;4979197;28;20041;-57
2023/03/31 09:08:15;;;;;;;15.52;3.15;;;12.10;99.90;;;;;;4972630;28;20042;-57
2023/03/31 09:11:03;;;;;;;15.48;2.63;;;12.20;99.90;;;;;;4971735;28;20541;-57
2023/03/31 09:14:10;;;;;;;16.23;2.88;;;12.20;99.90;;;;;;4976477;28;20034;-57
2023/03/31 09:16:45;;;;;;;14.20;3.00;;;12.20;99.90;;;;;;4973744;28;20462;-57
2023/03/31 09:19:43;;;;;;;12.90;2.88;;;12.20;99.90;;;;;;4976070;28;20114;-56
2023/03/31 09:22:17;;;;;;;14.77;3.10;;;12.30;99.90;;;;;;4967876;28;20427;-57
2023/03/31 09:25:02;;;;;;;18.88;3.10;;;12.30;99.90;;;;;;4976261;28;20037;-58
2023/03/31 09:27:33;;;;;;;19.13;2.92;;;12.40;99.90;;;;;;4977106;28;20030;-58
2023/03/31 09:30:09;;;;;;;10.32;3.08;;;12.50;99.90;;;;;;4975565;28;20155;-58
2023/03/31 09:32:37;;;;;;;21.25;3.47;;;12.60;99.90;;;;;;4972031;28;20038;-59
2023/03/31 09:35:20;;;;;;;13.85;2.72;;;12.60;99.90;;;;;;4980336;28;20034;-58
2023/03/31 09:37:47;;;;;;;15.52;2.97;;;12.80;99.90;;;;;;4978265;28;20034;-58
2023/03/31 09:40:24;;;;;;;14.25;2.67;;;12.90;99.90;;;;;;4978198;28;20035;-58
2023/03/31 09:42:59;;;;;;;13.30;2.63;;;13.00;99.90;;;;;;4979791;28;20058;-58
2023/03/31 09:45:25;;;;;;;16.50;3.47;;;13.10;99.90;;;;;;4973109;28;20042;-58
2023/03/31 09:47:53;;;;;;;16.08;3.30;;;13.10;99.90;;;;;;4975376;28;20038;-59
2023/03/31 09:50:20;;;;;;;11.65;3.17;;;13.30;99.90;;;;;;4978962;28;20042;-58
2023/03/31 09:52:51;;;;;;;13.63;3.47;;;13.30;99.90;;;;;;4977269;28;20162;-58
2023/03/31 09:55:23;;;;;;;19.50;3.22;;;13.30;99.90;;;;;;4975680;28;20046;-58
2023/03/31 09:57:49;;;;;;;14.85;3.50;;;13.00;99.90;;;;;;4979814;28;20038;-58
2023/03/31 10:00:21;;;;;;;16.10;3.33;;;12.80;99.90;;;;;;4971257;28;20034;-59
2023/03/31 10:02:50;;;;;;;17.25;3.03;;;12.80;99.90;;;;;;4975099;28;20105;-58
2023/03/31 10:05:36;;;;;;;15.57;2.90;;;12.70;99.90;;;;;;4975143;28;20136;-58
2023/03/31 10:08:31;;;;;;;15.38;2.97;;;12.70;99.90;;;;;;4975233;28;20416;-58
2023/03/31 10:11:03;;;;;;;13.82;2.97;;;12.80;99.90;;;;;;4979915;28;20121;-57
2023/03/31 10:13:47;;;;;;;14.48;3.40;;;12.80;99.90;;;;;;4974421;28;20247;-58
2023/03/31 10:16:52;;;;;;;17.88;2.88;;;12.90;99.90;;;;;;4978944;28;20530;-58
2023/03/31 10:19:30;;;;;;;19.17;3.53;;;13.00;99.90;;;;;;4961246;28;20041;-58
2023/03/31 10:22:17;;;;;;;15.80;2.95;;;13.00;99.90;;;;;;4975217;28;20034;-58
2023/03/31 10:24:44;;;;;;;20.25;3.97;;;13.20;99.90;;;;;;4970258;28;20245;-58
2023/03/31 10:27:30;;;;;;;20.52;3.97;;;13.40;99.90;;;;;;4976332;28;20069;-58
2023/03/31 10:30:02;;;;;;;15.73;3.88;;;13.40;99.90;;;;;;4977050;28;20105;-58
2023/03/31 10:32:33;;;;;;;17.90;3.72;;;13.50;99.90;;;;;;4976270;28;20045;-58
2023/03/31 10:35:05;;;;;;;18.23;3.40;;;13.60;99.90;;;;;;4976926;28;20188;-58
2023/03/31 10:37:33;;;;;;;23.05;3.28;;;13.70;99.90;;;;;;4977495;28;20121;-58
2023/03/31 10:40:11;;;;;;;13.50;3.10;;;13.80;99.90;;;;;;4977672;28;20466;-57
2023/03/31 10:42:37;;;;;;;14.07;4.05;;;13.60;99.90;;;;;;4980037;28;20366;-57
2023/03/31 10:45:27;;;;;;;16.58;3.20;;;13.30;99.90;;;;;;4978953;28;20035;-57
2023/03/31 10:47:55;;;;;;;13.85;2.40;;;13.20;99.90;;;;;;4975419;28;20062;-57
2023/03/31 10:50:27;;;;;;;10.23;2.20;;;13.10;99.90;;;;;;4976747;28;20057;-57
2023/03/31 10:53:19;;;;;;;8.73;2.13;;;12.70;99.90;;;;;;4979827;28;20030;-57
2023/03/31 10:56:05;;;;;;;6.32;1.52;;;12.70;99.90;;;;;;4979197;28;20042;-57
2023/03/31 10:58:42;;;;;;;7.05;2.00;;;12.80;99.90;;;;;;4976876;28;20500;-57
2023/03/31 11:01:28;;;;;;;11.98;2.15;;;12.80;99.90;;;;;;4978075;28;20118;-58
2023/03/31 11:04:23;;;;;;;8.48;2.08;;;12.80;99.90;;;;;;4976395;28;20027;-58
2023/03/31 11:07:22;;;;;;;6.93;1.90;;;12.90;99.90;;;;;;4971232;28;20038;-57
2023/03/31 11:10:20;;;;;;;8.95;1.85;;;12.80;99.90;;;;;;4960828;28;20034;-57
2023/03/31 11:13:09;;;;;;;7.35;1.70;;;12.90;99.90;;;;;;4974539;28;20038;-58
2023/03/31 11:15:35;;;;;;;6.82;1.73;;;12.90;99.90;;;;;;4977451;28;20152;-57
2023/03/31 11:18:43;;;;;;;5.00;1.55;;;13.00;99.90;;;;;;4977230;28;20510;-58
2023/03/31 11:21:36;;;;;;;6.32;1.40;;;13.10;99.90;;;;;;4958817;28;20054;-58
2023/03/31 11:24:48;;;;;;;6.45;1.92;;;13.20;99.90;;;;;;4975831;28;20066;-57
2023/03/31 11:27:41;;;;;;;7.72;1.40;;;13.20;99.90;;;;;;4954019;28;20580;-58
2023/03/31 11:30:26;;;;;;;7.57;1.70;;;13.20;1.00;;;;;;4976915;28;20145;-57
2023/03/31 11:33:25;;;;;;;7.72;1.30;;;13.20;1.00;;;;;;4975757;28;20710;-58
2023/03/31 11:36:13;;;;;;;7.68;1.65;;;13.20;1.00;;;;;;4970763;28;20057;-57
2023/03/31 11:39:09;;;;;;;10.60;1.92;;;13.30;1.00;;;;;;4975681;28;20046;-58
2023/03/31 11:42:14;;;;;;;6.07;1.42;;;13.50;1.00;;;;;;4973273;28;20100;-58
2023/03/31 11:44:45;;;;;;;11.38;1.80;;;13.60;1.00;;;;;;4971976;28;20034;-58
2023/03/31 11:47:20;;;;;;;7.93;1.60;;;13.60;1.00;;;;;;4973612;28;20073;-59
2023/03/31 11:49:59;;;;;;;9.77;2.25;;;13.70;1.00;;;;;;4973135;28;20413;-58
2023/03/31 11:52:39;;;;;;;8.77;2.03;;;13.80;1.00;;;;;;4972945;28;20471;-58
2023/03/31 11:55:27;;;;;;;6.65;1.88;;;13.80;1.00;;;;;;4973463;28;20061;-58
2023/03/31 11:58:07;;;;;;;7.80;1.77;;;13.90;1.00;;;;;;4973901;28;20514;-58
2023/03/31 12:00:41;;;;;;;11.73;2.03;;;14.00;1.00;;;;;;4971357;28;20035;-58
2023/03/31 12:03:28;;;;;;;11.88;2.20;;;13.90;1.00;;;;;;4974092;28;20046;-58
2023/03/31 12:06:02;;;;;;;9.48;1.73;;;13.80;1.00;;;;;;4976976;28;20034;-58
2023/03/31 12:08:40;;;;;;;10.40;2.25;;;13.80;1.00;;;;;;4974390;28;20474;-58
2023/03/31 12:11:14;;;;;;;10.82;2.40;;;13.80;1.00;;;;;;4973183;28;20247;-58
2023/03/31 12:13:44;;;;;;;11.27;2.30;;;13.70;1.00;;;;;;4970398;28;20043;-58
2023/03/31 12:16:40;;;;;;;15.05;2.55;;;13.70;1.00;;;;;;4974369;28;20091;-58
2023/03/31 12:19:28;;;;;;;10.85;2.63;;;13.70;1.00;;;;;;4973629;28;20085;-58
2023/03/31 12:22:09;;;;;;;11.65;2.75;;;13.70;1.00;;;;;;4978032;28;20062;-58
2023/03/31 12:24:35;;;;;;;12.30;2.80;;;13.80;1.00;;;;;;4975616;28;20062;-58
2023/03/31 12:27:31;;;;;;;12.70;2.75;;;13.90;1.00;;;;;;4977748;28;20114;-58
2023/03/31 12:30:05;;;;;;;10.68;2.60;;;14.00;1.00;;;;;;4974070;28;20031;-58
2023/03/31 12:32:38;;;;;;;12.05;2.47;;;14.10;1.00;;;;;;4981815;28;20062;-58
2023/03/31 12:35:41;;;;;;;14.63;2.55;;;14.10;1.00;;;;;;4976730;28;20037;-58
2023/03/31 12:38:22;;;;;;;11.07;2.23;;;14.10;1.00;;;;;;4977016;28;20479;-58
2023/03/31 12:41:03;;;;;;;11.02;2.75;;;14.20;1.00;;;;;;4977260;28;20034;-58
2023/03/31 12:43:47;;;;;;;14.02;2.85;;;14.30;1.00;;;;;;4977915;28;20114;-58
2023/03/31 12:46:31;;;;;;;12.73;2.50;;;14.30;1.00;;;;;;4976342;28;20108;-58
2023/03/31 12:49:09;;;;;;;8.18;2.20;;;14.50;1.00;;;;;;4978991;28;20034;-58
2023/03/31 12:51:47;;;;;;;12.05;2.65;;;14.60;1.00;;;;;;4977640;28;20039;-58
2023/03/31 12:54:31;;;;;;;12.38;2.65;;;14.70;1.00;;;;;;4970871;28;20047;-58
2023/03/31 12:57:00;;;;;;;;;;;14.60;99.90;;;;;;4977272;28;20117;-58
2023/03/31 12:59:32;;;;;;;7.32;1.80;;;14.40;99.90;;;;;;4978176;28;19945;-58
2023/03/31 13:02:16;;;;;;;12.02;2.55;;;14.50;1.00;;;;;;4978077;28;20034;-58
2023/03/31 13:04:42;;;;;;;9.90;2.53;;;14.40;99.90;;;;;;4974461;28;20046;-58
2023/03/31 13:07:26;;;;;;;11.02;2.35;;;14.30;99.90;;;;;;4977620;28;20450;-58
2023/03/31 13:09:55;;;;;;;;;;;14.50;99.90;;;;;;4975862;28;20062;-58
2023/03/31 13:12:24;;;;;;;10.18;2.20;;;14.50;99.90;;;;;;4980731;28;19921;-58
2023/03/31 13:14:53;;;;;;;11.93;2.40;;;14.60;99.90;;;;;;4981103;28;20752;-58